Time;durP1;ratioP1;P1;durP2;ratioP2;P2;SDS_P1;SDS_P2;PMS_P1;PMS_P2;Temp;Humidity;BMP_temperature;BMP_pressure;BME280_temperature;BME280_humidity;BME280_pressure;Samples;Min_cycle;Max_cycle;Signal;HPM_P1;HPM_P2
2022/03/10 00:02:21;;;;;;;24.43;10.47;;;;;;;38.90;46.57;100633.44;5033809;28;20427;-77
2022/03/10 00:04:47;;;;;;;20.70;9.13;;;;;;;39.03;46.54;100635.19;5032753;28;20418;-80
2022/03/10 00:07:14;;;;;;;17.00;9.23;;;;;;;38.85;46.51;100637.09;5032767;28;20419;-78
2022/03/10 00:09:40;;;;;;;12.83;9.23;;;;;;;38.82;45.88;100642.38;5032136;28;20485;-79
2022/03/10 00:12:07;;;;;;;27.43;11.07;;;;;;;38.88;45.78;100630.25;5032609;28;20448;-79
2022/03/10 00:14:33;;;;;;;22.90;12.00;;;;;;;38.85;45.83;100625.44;5033871;28;20483;-78
2022/03/10 00:16:59;;;;;;;19.60;8.47;;;;;;;38.84;46.27;100627.34;5032516;28;20432;-79
2022/03/10 00:19:26;;;;;;;20.03;9.73;;;;;;;38.60;46.95;100632.41;5032067;28;20423;-79
2022/03/10 00:21:52;;;;;;;24.10;10.67;;;;;;;38.79;46.77;100629.44;5032023;28;20423;-79
2022/03/10 00:24:19;;;;;;;22.43;10.73;;;;;;;38.69;46.73;100636.72;5031855;28;20521;-78
2022/03/10 00:26:46;;;;;;;22.20;10.10;;;;;;;38.67;47.73;100633.56;5032287;28;20412;-77
2022/03/10 00:29:13;;;;;;;16.90;9.37;;;;;;;38.39;47.72;100627.59;5032286;28;20423;-78
2022/03/10 00:31:42;;;;;;;25.00;11.17;;;;;;;38.61;47.14;100626.69;5032149;28;20832;-80
2022/03/10 00:34:09;;;;;;;17.13;8.27;;;;;;;38.57;47.16;100619.50;5032060;28;20511;-81
2022/03/10 00:36:35;;;;;;;33.80;11.53;;;;;;;38.79;46.47;100618.56;5032186;28;20447;-78
2022/03/10 00:39:03;;;;;;;14.63;8.83;;;;;;;38.83;46.71;100620.34;5031638;28;20466;-78
2022/03/10 00:41:29;;;;;;;16.30;8.20;;;;;;;38.73;46.72;100611.72;5032094;28;20510;-81
2022/03/10 00:43:55;;;;;;;28.17;12.50;;;;;;;38.61;47.13;100609.59;5031214;28;20430;-81
2022/03/10 00:46:21;;;;;;;18.43;12.13;;;;;;;38.60;46.89;100610.72;5031907;28;20883;-81
2022/03/10 00:48:47;;;;;;;25.20;11.40;;;;;;;38.56;47.07;100604.34;5031393;28;20416;-79
2022/03/10 00:51:14;;;;;;;33.23;12.17;;;;;;;38.72;47.03;100600.06;5030715;28;20536;-78
2022/03/10 00:53:40;;;;;;;15.90;10.63;;;;;;;38.80;46.65;100595.78;5031758;28;20433;-78
2022/03/10 00:56:06;;;;;;;27.97;10.40;;;;;;;38.93;46.62;100597.56;5031845;28;20419;-78
2022/03/10 00:58:32;;;;;;;31.33;13.70;;;;;;;38.86;46.45;100592.59;5031725;28;20474;-78
2022/03/10 01:00:58;;;;;;;17.33;10.70;;;;;;;38.76;46.52;100586.69;5031022;28;20475;-79
2022/03/10 01:03:25;;;;;;;19.83;9.67;;;;;;;38.66;46.70;100585.06;5031595;28;20419;-78
2022/03/10 01:05:51;;;;;;;20.83;9.80;;;;;;;38.66;46.36;100587.75;5031667;28;20447;-78
2022/03/10 01:08:18;;;;;;;36.77;10.90;;;;;;;38.70;46.46;100588.72;5031376;28;20462;-78
2022/03/10 01:10:44;;;;;;;28.87;13.80;;;;;;;38.70;46.99;100584.09;5031277;28;20443;-81
2022/03/10 01:13:15;;;;;;;24.90;10.07;;;;;;;38.62;46.84;100574.06;5030782;28;20427;-81
2022/03/10 01:15:42;;;;;;;15.37;11.03;;;;;;;38.69;47.18;100568.16;5031130;28;20451;-79
2022/03/10 01:18:08;;;;;;;21.43;10.63;;;;;;;38.65;47.30;100562.56;5032740;28;20404;-79
2022/03/10 01:20:35;;;;;;;29.17;11.83;;;;;;;38.48;47.46;100562.56;5031288;28;20489;-78
2022/03/10 01:23:01;;;;;;;16.63;9.60;;;;;;;38.65;47.01;100572.63;5030812;28;20430;-79
2022/03/10 01:25:27;;;;;;;17.70;9.53;;;;;;;38.80;46.82;100563.25;5031076;28;20943;-79
2022/03/10 01:27:54;;;;;;;21.27;12.00;;;;;;;38.55;47.06;100560.19;5031215;28;20447;-79
2022/03/10 01:30:20;;;;;;;19.37;10.97;;;;;;;38.23;47.44;100566.78;5026387;28;20575;-78
2022/03/10 01:32:47;;;;;;;20.90;11.30;;;;;;;38.06;47.81;100567.56;5010874;28;20464;-78
2022/03/10 01:35:14;;;;;;;26.17;10.57;;;;;;;38.25;47.33;100561.88;5011429;28;20433;-78
2022/03/10 01:37:41;;;;;;;25.57;11.73;;;;;;;38.13;47.12;100570.59;5011317;28;20511;-78
2022/03/10 01:40:10;;;;;;;18.90;9.03;;;;;;;38.12;47.32;100549.22;5011362;28;20478;-78
2022/03/10 01:42:37;;;;;;;16.23;9.10;;;;;;;37.87;48.33;100561.56;5011167;28;20414;-79
2022/03/10 01:45:04;;;;;;;13.23;10.93;;;;;;;38.16;47.31;100545.56;5011192;28;20420;-78
2022/03/10 01:47:30;;;;;;;21.30;9.50;;;;;;;38.27;47.19;100543.41;5011473;28;20428;-79
2022/03/10 01:49:57;;;;;;;20.73;8.47;;;;;;;38.54;46.40;100546.94;5017210;28;20427;-81
2022/03/10 01:52:23;;;;;;;24.93;10.63;;;;;;;38.55;46.45;100549.34;5030432;28;21009;-81
2022/03/10 01:54:50;;;;;;;21.70;12.20;;;;;;;38.67;46.45;100545.97;5030631;28;20562;-79
2022/03/10 01:57:17;;;;;;;18.70;11.47;;;;;;;38.76;46.32;100548.75;5032210;28;20392;-81
2022/03/10 01:59:44;;;;;;;17.13;10.27;;;;;;;38.63;46.73;100545.03;5030766;28;20419;-79
2022/03/10 02:02:10;;;;;;;21.90;11.97;;;;;;;38.57;46.90;100544.41;5030801;28;20415;-78
2022/03/10 02:04:36;;;;;;;17.73;10.13;;;;;;;38.68;46.75;100545.69;5030549;28;20454;-79
2022/03/10 02:07:04;;;;;;;22.50;11.13;;;;;;;38.84;46.40;100553.34;5030645;28;20431;-78
2022/03/10 02:12:15;;;;;;;22.33;9.83;;;;;;;38.74;46.00;100559.13;5031931;28;20462;-79
2022/03/10 02:17:27;;;;;;;26.93;10.63;;;;;;;38.85;45.92;100563.06;5031814;28;21008;-81
2022/03/10 02:19:55;;;;;;;19.63;9.63;;;;;;;38.72;46.22;100559.41;5030229;28;20423;-79
2022/03/10 02:22:23;;;;;;;21.73;11.10;;;;;;;38.49;46.80;100556.03;5030581;28;20575;-78
2022/03/10 02:24:51;;;;;;;20.10;9.97;;;;;;;38.60;46.15;100559.22;5030517;28;20485;-77
2022/03/10 02:27:26;;;;;;;18.60;12.40;;;;;;;38.58;46.29;100562.25;5031881;28;20392;-78
2022/03/10 02:29:55;;;;;;;29.53;8.53;;;;;;;38.59;45.90;100563.03;5030558;28;20489;-81
2022/03/10 02:32:22;;;;;;;21.20;10.20;;;;;;;38.77;45.52;100559.25;5030427;28;20473;-79
2022/03/10 02:34:49;;;;;;;14.40;9.33;;;;;;;38.95;45.11;100568.97;5030325;28;20442;-78
2022/03/10 02:37:15;;;;;;;14.03;9.60;;;;;;;38.83;45.57;100557.19;5030323;28;20447;-78
2022/03/10 02:39:44;;;;;;;20.13;10.70;;;;;;;38.89;46.02;100562.13;5030299;28;20507;-79
2022/03/10 02:42:12;;;;;;;21.00;10.53;;;;;;;38.80;45.81;100564.06;5030334;28;20408;-78
2022/03/10 02:44:47;;;;;;;24.50;9.90;;;;;;;38.57;46.03;100563.38;5031739;28;20399;-78
2022/03/10 02:47:14;;;;;;;34.47;11.30;;;;;;;38.56;46.22;100553.66;5030265;28;20426;-79
2022/03/10 02:49:41;;;;;;;19.93;10.50;;;;;;;38.67;45.60;100549.50;5030337;28;20423;-81
2022/03/10 02:52:08;;;;;;;14.93;8.73;;;;;;;38.88;45.42;100554.31;5030075;28;20566;-78
2022/03/10 02:54:35;;;;;;;20.73;10.50;;;;;;;38.79;45.54;100559.72;5029957;28;20486;-79
2022/03/10 02:57:01;;;;;;;15.00;9.53;;;;;;;38.47;46.11;100550.13;5033721;28;20972;-78
2022/03/10 02:59:27;;;;;;;28.43;12.37;;;;;;;38.66;46.08;100553.31;5033866;28;20458;-80
2022/03/10 03:01:56;;;;;;;19.17;10.07;;;;;;;38.87;45.27;100548.09;5033603;28;20421;-78
2022/03/10 03:04:22;;;;;;;16.37;8.70;;;;;;;38.75;46.04;100561.50;5035219;28;20442;-78
2022/03/10 03:06:49;;;;;;;25.10;11.47;;;;;;;38.39;46.93;100554.41;5033896;28;20419;-78
2022/03/10 03:09:15;;;;;;;17.13;10.80;;;;;;;38.35;46.91;100558.06;5033807;28;20553;-78
2022/03/10 03:11:41;;;;;;;27.87;13.13;;;;;;;38.18;47.06;100550.66;5033494;28;20471;-79
2022/03/10 03:14:08;;;;;;;30.13;10.30;;;;;;;38.07;47.36;100552.09;5033833;28;20419;-78
2022/03/10 03:16:34;;;;;;;26.83;12.07;;;;;;;38.30;47.15;100548.16;5033684;28;20569;-78
2022/03/10 03:19:00;;;;;;;25.30;10.70;;;;;;;38.26;47.01;100557.25;5033690;28;20986;-78
2022/03/10 03:21:26;;;;;;;27.30;12.07;;;;;;;38.40;46.82;100555.22;5029616;28;20500;-78
2022/03/10 03:23:53;;;;;;;22.27;10.67;;;;;;;38.34;47.02;100562.69;5033678;28;20416;-78
2022/03/10 03:26:19;;;;;;;14.70;10.27;;;;;;;38.25;47.25;100569.19;5033517;28;20499;-78
2022/03/10 03:28:46;;;;;;;25.20;10.40;;;;;;;38.10;47.59;100562.28;5033263;28;20954;-78
2022/03/10 03:31:12;;;;;;;17.63;11.70;;;;;;;38.40;46.79;100563.34;5033292;28;20486;-81
2022/03/10 03:33:39;;;;;;;21.70;10.67;;;;;;;38.59;46.32;100569.25;5033494;28;20423;-81
2022/03/10 03:36:05;;;;;;;16.93;9.67;;;;;;;38.58;46.84;100562.25;5033389;28;20423;-78
2022/03/10 03:38:32;;;;;;;29.03;14.07;;;;;;;38.50;47.07;100559.53;5033470;28;20478;-79
2022/03/10 03:40:59;;;;;;;20.87;11.60;;;;;;;38.12;47.80;100560.06;5034513;28;20830;-79
2022/03/10 03:43:25;;;;;;;17.60;11.87;;;;;;;38.49;46.45;100557.94;5032615;28;20416;-78
2022/03/10 03:45:52;;;;;;;15.90;9.70;;;;;;;38.17;47.29;100568.84;5033620;28;20462;-78
2022/03/10 03:48:18;;;;;;;28.97;13.27;;;;;;;38.58;46.61;100556.81;5032531;28;20455;-81
2022/03/10 03:50:44;;;;;;;20.50;11.40;;;;;;;38.72;46.60;100559.41;5032333;28;20476;-81
2022/03/10 03:53:10;;;;;;;17.67;10.13;;;;;;;38.54;46.64;100555.84;5032369;28;20490;-80
2022/03/10 03:55:36;;;;;;;31.37;11.83;;;;;;;38.41;46.99;100552.19;5032997;28;20457;-78
2022/03/10 03:58:02;;;;;;;20.77;11.23;;;;;;;38.44;46.98;100554.28;5032909;28;20444;-78
2022/03/10 04:00:29;;;;;;;38.17;11.03;;;;;;;38.70;46.40;100557.00;5032737;28;20434;-81
2022/03/10 04:02:55;;;;;;;14.87;11.67;;;;;;;38.43;47.00;100560.81;5033123;28;20419;-79
2022/03/10 04:05:21;;;;;;;22.80;11.90;;;;;;;38.42;47.30;100563.81;5032718;28;20488;-79
2022/03/10 04:07:48;;;;;;;22.63;11.57;;;;;;;38.66;47.06;100555.22;5032163;28;20419;-78
2022/03/10 04:10:14;;;;;;;28.53;11.70;;;;;;;38.52;47.05;100552.69;5032436;28;21040;-78
2022/03/10 04:12:40;;;;;;;21.83;11.17;;;;;;;38.55;47.34;100557.47;5032704;28;20538;-81
2022/03/10 04:15:07;;;;;;;26.43;10.13;;;;;;;38.48;46.71;100562.56;5032235;28;20435;-81
2022/03/10 04:17:33;;;;;;;26.03;11.73;;;;;;;38.38;47.13;100562.88;5032013;28;20470;-78
2022/03/10 04:19:59;;;;;;;18.33;11.03;;;;;;;38.09;47.81;100563.41;5032489;28;20956;-78
2022/03/10 04:22:25;;;;;;;31.20;10.47;;;;;;;38.45;46.81;100555.06;5032536;28;20408;-78
2022/03/10 04:24:51;;;;;;;32.27;12.13;;;;;;;38.56;47.05;100569.13;5032166;28;20484;-78
2022/03/10 04:27:18;;;;;;;25.03;11.87;;;;;;;38.55;46.92;100564.78;5032267;28;20416;-78
2022/03/10 04:29:44;;;;;;;17.00;9.07;;;;;;;38.53;46.90;100570.53;5031901;28;20462;-81
2022/03/10 04:32:10;;;;;;;22.33;10.60;;;;;;;38.18;47.42;100572.34;5031788;28;20809;-81
2022/03/10 04:34:36;;;;;;;17.50;10.00;;;;;;;38.65;46.60;100572.63;5032365;28;20463;-79
2022/03/10 04:37:03;;;;;;;19.30;11.60;;;;;;;38.88;45.83;100568.66;5032231;28;20435;-79
2022/03/10 04:39:29;;;;;;;35.10;12.50;;;;;;;38.79;46.34;100576.00;5032116;28;20435;-81
2022/03/10 04:41:55;;;;;;;30.87;11.67;;;;;;;38.78;46.60;100566.28;5033270;28;20805;-81
2022/03/10 04:44:21;;;;;;;21.13;10.10;;;;;;;38.87;46.20;100569.00;5031643;28;20485;-79
2022/03/10 04:46:47;;;;;;;31.83;11.87;;;;;;;38.52;46.81;100563.53;5032095;28;20424;-79
2022/03/10 04:49:13;;;;;;;20.60;10.40;;;;;;;38.31;47.17;100566.03;5031893;28;20538;-78
2022/03/10 04:51:40;;;;;;;19.27;8.97;;;;;;;38.10;47.84;100565.78;5031627;28;20475;-81
2022/03/10 04:54:06;;;;;;;23.43;11.80;;;;;;;37.97;47.93;100553.16;5031451;28;20416;-81
2022/03/10 04:56:33;;;;;;;18.73;10.93;;;;;;;38.08;48.03;100554.47;5031668;28;20829;-79
2022/03/10 04:59:00;;;;;;;26.27;12.50;;;;;;;38.25;47.34;100545.59;5031846;28;20971;-78
2022/03/10 05:01:26;;;;;;;17.87;10.30;;;;;;;38.39;47.06;100548.19;5031784;28;20454;-78
2022/03/10 05:03:52;;;;;;;19.73;10.57;;;;;;;38.16;47.80;100545.56;5031455;28;20951;-78
2022/03/10 05:06:18;;;;;;;29.13;10.57;;;;;;;37.97;48.38;100555.88;5031743;28;20561;-78
2022/03/10 05:08:44;;;;;;;22.20;11.27;;;;;;;37.84;48.72;100557.59;5032938;28;20486;-79
2022/03/10 05:11:11;;;;;;;25.47;10.60;;;;;;;37.79;49.10;100567.72;5030929;28;20471;-81
2022/03/10 05:13:37;;;;;;;27.33;10.90;;;;;;;38.06;48.58;100554.00;5031497;28;20447;-81
2022/03/10 05:16:03;;;;;;;23.50;10.80;;;;;;;37.87;48.17;100554.22;5031354;28;20812;-78
2022/03/10 05:18:29;;;;;;;19.13;9.87;;;;;;;37.99;47.86;100559.06;5030415;28;20419;-78
2022/03/10 05:20:55;;;;;;;18.90;10.83;;;;;;;38.08;47.94;100556.41;5031555;28;20439;-78
2022/03/10 05:23:22;;;;;;;24.00;11.10;;;;;;;37.95;48.08;100563.53;5031092;28;20447;-79
2022/03/10 05:25:48;;;;;;;20.67;10.57;;;;;;;38.01;48.46;100551.44;5030842;28;20454;-81
2022/03/10 05:28:14;;;;;;;26.37;14.10;;;;;;;38.24;48.39;100554.03;5013713;28;20425;-80
2022/03/10 05:30:45;;;;;;;24.53;12.37;;;;;;;38.09;48.13;100556.06;5011402;28;20483;-79
2022/03/10 05:33:12;;;;;;;20.60;10.97;;;;;;;38.03;47.92;100554.63;5011243;28;20444;-78
2022/03/10 05:35:39;;;;;;;21.80;10.47;;;;;;;37.70;48.62;100550.66;5011511;28;20960;-79
2022/03/10 05:38:05;;;;;;;20.93;13.63;;;;;;;37.77;48.80;100559.13;5011440;28;20435;-78
2022/03/10 05:40:32;;;;;;;25.83;12.83;;;;;;;38.04;47.77;100558.91;5012812;28;20440;-76
2022/03/10 05:42:58;;;;;;;25.73;12.77;;;;;;;38.17;47.44;100562.63;5030916;28;20427;-78
2022/03/10 05:45:26;;;;;;;27.37;10.80;;;;;;;38.14;47.59;100568.69;5030744;28;20454;-82
2022/03/10 05:47:58;;;;;;;22.27;10.70;;;;;;;37.94;48.24;100569.22;5029167;28;20801;-81
2022/03/10 05:50:26;;;;;;;19.53;10.03;;;;;;;38.31;46.89;100573.38;5030378;28;20483;-79
2022/03/10 05:52:52;;;;;;;19.00;11.07;;;;;;;38.33;46.81;100576.56;5030974;28;20467;-80
2022/03/10 05:55:20;;;;;;;31.07;15.20;;;;;;;38.33;47.22;100582.78;5030959;28;20430;-83
2022/03/10 05:57:47;;;;;;;24.83;12.30;;;;;;;38.25;46.90;100586.25;5030718;28;20427;-75
2022/03/10 06:00:14;;;;;;;20.53;10.03;;;;;;;38.24;46.77;100591.94;5032461;28;20911;-76
2022/03/10 06:02:41;;;;;;;18.40;10.20;;;;;;;38.21;46.81;100593.41;5020191;28;20478;-81
2022/03/10 06:05:08;;;;;;;26.63;10.70;;;;;;;38.33;46.55;100601.75;5023752;28;20415;-84
2022/03/10 06:07:34;;;;;;;32.13;13.97;;;;;;;38.34;46.61;100603.34;5025059;28;20431;-80
2022/03/10 06:10:01;;;;;;;23.00;11.03;;;;;;;38.41;46.46;100609.09;5022837;28;20494;-79
2022/03/10 06:12:28;;;;;;;28.73;12.20;;;;;;;38.40;46.21;100622.97;5027488;28;20461;-78
2022/03/10 06:14:58;;;;;;;18.57;10.40;;;;;;;38.28;46.95;100623.56;5030242;28;20962;-78
2022/03/10 06:17:25;;;;;;;30.60;10.93;;;;;;;38.39;46.93;100627.59;5029865;28;20474;-77
2022/03/10 06:19:52;;;;;;;18.13;9.67;;;;;;;38.30;46.94;100631.38;5028737;28;20849;-78
2022/03/10 06:22:21;;;;;;;22.17;11.17;;;;;;;38.15;47.52;100632.56;5028791;28;20408;-77
2022/03/10 06:24:48;;;;;;;25.40;10.10;;;;;;;38.26;46.98;100631.22;5029020;28;20423;-85
2022/03/10 06:27:16;;;;;;;20.23;10.13;;;;;;;38.34;46.86;100630.44;5029746;28;20474;-80
2022/03/10 06:29:43;;;;;;;27.67;11.03;;;;;;;38.49;46.55;100634.63;5032625;28;20515;-78
2022/03/10 06:32:12;;;;;;;23.13;12.10;;;;;;;38.53;46.96;100640.19;5034112;28;20458;-78
2022/03/10 06:34:38;;;;;;;24.30;11.03;;;;;;;38.44;46.39;100646.41;5034643;28;20415;-79
2022/03/10 06:37:05;;;;;;;22.47;12.27;;;;;;;38.54;46.57;100639.09;5035946;28;20427;-78
2022/03/10 06:39:33;;;;;;;24.57;10.97;;;;;;;38.52;46.82;100644.81;5034387;28;20503;-77
2022/03/10 06:41:59;;;;;;;32.57;13.80;;;;;;;38.56;46.07;100650.44;5032479;28;20443;-79
2022/03/10 06:44:26;;;;;;;28.53;12.83;;;;;;;38.50;46.46;100659.81;5032131;28;20431;-80
2022/03/10 06:46:52;;;;;;;25.27;11.47;;;;;;;38.30;46.98;100653.03;5031989;28;20428;-78
2022/03/10 06:49:18;;;;;;;28.07;13.30;;;;;;;38.58;46.57;100661.75;5031822;28;20419;-79
2022/03/10 06:51:45;;;;;;;26.53;14.03;;;;;;;38.75;46.33;100655.59;5031441;28;20578;-78
2022/03/10 06:54:11;;;;;;;27.93;12.23;;;;;;;38.79;46.36;100656.53;5032617;28;20847;-79
2022/03/10 06:56:38;;;;;;;25.80;11.10;;;;;;;38.59;46.22;100661.41;5032780;28;20454;-79
2022/03/10 06:59:06;;;;;;;27.87;14.13;;;;;;;38.73;46.13;100664.03;5034387;28;20502;-75
2022/03/10 07:01:32;;;;;;;16.63;11.47;;;;;;;38.72;46.13;100662.44;5030777;28;20427;-80
2022/03/10 07:03:59;;;;;;;25.97;12.33;;;;;;;38.69;46.22;100673.88;5034236;28;20442;-78
2022/03/10 07:06:26;;;;;;;19.50;10.63;;;;;;;38.63;46.41;100667.03;5032056;28;20467;-76
2022/03/10 07:08:53;;;;;;;23.10;14.03;;;;;;;38.69;45.91;100671.97;5029967;28;20419;-78
2022/03/10 07:11:19;;;;;;;20.53;10.70;;;;;;;38.79;46.16;100675.50;5032346;28;20462;-76
2022/03/10 07:13:47;;;;;;;27.23;12.60;;;;;;;38.75;45.96;100672.66;5032347;28;20451;-76
2022/03/10 07:16:14;;;;;;;30.60;12.70;;;;;;;38.48;46.95;100673.66;5029412;28;20431;-76
2022/03/10 07:18:40;;;;;;;22.60;11.63;;;;;;;38.79;46.45;100673.59;5032235;28;20451;-77
2022/03/10 07:21:06;;;;;;;27.50;13.53;;;;;;;38.65;46.29;100681.03;5031921;28;20412;-76
2022/03/10 07:23:33;;;;;;;24.73;13.07;;;;;;;38.58;46.44;100680.72;5032804;28;20505;-75
2022/03/10 07:25:59;;;;;;;25.93;14.93;;;;;;;38.64;46.07;100693.00;5032684;28;20431;-78
2022/03/10 07:28:27;;;;;;;29.53;13.30;;;;;;;38.46;46.35;100702.19;5033427;28;20462;-78
2022/03/10 07:30:53;;;;;;;25.43;13.37;;;;;;;38.70;46.09;100711.53;5033281;28;20481;-78
2022/03/10 07:33:21;;;;;;;37.47;15.47;;;;;;;38.80;45.91;100715.91;5023591;28;20462;-77
2022/03/10 07:35:47;;;;;;;33.50;16.53;;;;;;;38.62;46.02;100712.31;5013704;28;20451;-77
2022/03/10 07:38:13;;;;;;;29.03;12.07;;;;;;;38.61;45.75;100728.88;5013047;28;20451;-77
2022/03/10 07:40:39;;;;;;;28.30;12.77;;;;;;;38.57;46.06;100738.75;5012452;28;20808;-80
2022/03/10 07:43:06;;;;;;;29.63;18.80;;;;;;;38.60;45.75;100744.34;5013287;28;20428;-81
2022/03/10 07:45:33;;;;;;;41.93;17.50;;;;;;;38.85;45.29;100750.19;5020075;28;20570;-79
2022/03/10 07:47:59;;;;;;;31.37;15.70;;;;;;;38.78;45.42;100760.69;5034564;28;20481;-79
2022/03/10 07:50:26;;;;;;;22.63;12.17;;;;;;;38.53;46.17;100762.16;5032481;28;20482;-78
2022/03/10 07:52:52;;;;;;;22.13;10.93;;;;;;;38.51;46.56;100767.91;5032962;28;21076;-79
2022/03/10 07:55:18;;;;;;;31.17;13.13;;;;;;;38.40;46.37;100774.69;5032376;28;20416;-79
2022/03/10 07:57:44;;;;;;;24.53;11.40;;;;;;;38.29;46.83;100779.59;5031738;28;20808;-79
2022/03/10 08:00:12;;;;;;;18.37;10.30;;;;;;;38.57;46.28;100785.63;5030459;28;20458;-79
2022/03/10 08:02:38;;;;;;;28.73;13.33;;;;;;;38.68;45.86;100794.28;5030297;28;20424;-78
2022/03/10 08:05:05;;;;;;;18.47;10.90;;;;;;;38.64;45.62;100788.69;5032053;28;20482;-77
2022/03/10 08:07:34;;;;;;;27.67;14.67;;;;;;;38.60;46.26;100792.31;5031079;28;20498;-80
2022/03/10 08:10:03;;;;;;;18.83;9.50;;;;;;;38.69;45.75;100785.03;5030852;28;20856;-79
2022/03/10 08:12:31;;;;;;;35.30;15.70;;;;;;;38.52;46.35;100787.69;5031458;28;20840;-78
2022/03/10 08:14:57;;;;;;;17.33;11.23;;;;;;;38.53;46.28;100798.19;5032153;28;20412;-76
2022/03/10 08:17:25;;;;;;;26.60;11.20;;;;;;;38.61;45.95;100800.16;5032701;28;20418;-76
2022/03/10 08:19:53;;;;;;;28.73;12.50;;;;;;;38.15;45.96;100804.03;5032712;28;20415;-81
2022/03/10 08:22:21;;;;;;;19.63;10.10;;;;;;;38.42;45.29;100800.38;5032233;28;20511;-80
2022/03/10 08:24:48;;;;;;;28.83;10.93;;;;;;;38.84;44.70;100803.63;5032751;28;20419;-76
2022/03/10 08:27:15;;;;;;;24.10;12.40;;;;;;;39.06;44.00;100815.50;5032443;28;20416;-76
2022/03/10 08:29:42;;;;;;;21.70;11.03;;;;;;;39.00;44.26;100811.34;5032409;28;20920;-75
2022/03/10 08:32:08;;;;;;;33.83;11.23;;;;;;;38.94;44.43;100805.25;5032313;28;20452;-75
2022/03/10 08:34:36;;;;;;;25.80;10.30;;;;;;;38.60;44.73;100806.69;5032207;28;20490;-75
2022/03/10 08:37:03;;;;;;;31.00;12.93;;;;;;;38.76;44.05;100815.25;5032347;28;20427;-75
2022/03/10 08:39:29;;;;;;;30.53;11.77;;;;;;;38.73;44.14;100813.13;5031310;28;20958;-75
2022/03/10 08:41:55;;;;;;;20.80;11.27;;;;;;;39.07;43.70;100809.75;5032118;28;20491;-77
2022/03/10 08:44:22;;;;;;;31.57;10.63;;;;;;;39.13;44.00;100804.97;5032158;28;20412;-77
2022/03/10 08:46:48;;;;;;;22.80;9.77;;;;;;;39.11;44.11;100802.59;5032024;28;20431;-76
2022/03/10 08:49:17;;;;;;;16.60;8.73;;;;;;;39.12;44.19;100809.63;5031596;28;20458;-76
2022/03/10 08:51:44;;;;;;;20.90;10.97;;;;;;;39.18;44.25;100794.03;5031697;28;20483;-77
2022/03/10 08:54:12;;;;;;;25.80;11.37;;;;;;;39.10;44.36;100802.88;5030352;28;20483;-77
2022/03/10 08:56:39;;;;;;;16.43;9.63;;;;;;;38.74;44.67;100798.50;5031861;28;20424;-77
2022/03/10 08:59:05;;;;;;;18.87;11.93;;;;;;;38.91;44.03;100797.72;5033194;28;20404;-77
2022/03/10 09:01:32;;;;;;;14.50;9.07;;;;;;;39.02;44.15;100796.34;5031595;28;20928;-77
2022/03/10 09:04:00;;;;;;;16.53;10.47;;;;;;;38.91;44.27;100795.81;5031267;28;20424;-79
2022/03/10 09:06:26;;;;;;;22.13;9.70;;;;;;;39.05;43.78;100803.84;5031670;28;20486;-75
2022/03/10 09:08:52;;;;;;;31.37;13.90;;;;;;;39.12;43.87;100793.34;5031645;28;20432;-74
2022/03/10 09:11:18;;;;;;;21.87;9.87;;;;;;;39.16;44.18;100799.75;5032786;28;20463;-78
2022/03/10 09:13:48;;;;;;;15.50;9.40;;;;;;;39.23;43.62;100793.88;5038309;22;20553;-78
2022/03/10 09:16:22;;;;;;;23.17;10.47;;;;;;;39.35;43.46;100801.38;5011741;28;20429;-77
2022/03/10 09:18:49;;;;;;;21.20;8.97;;;;;;;38.99;43.85;100793.47;5011781;28;20902;-78
2022/03/10 09:21:19;;;;;;;15.40;8.93;;;;;;;39.09;43.87;100791.25;5011658;28;20470;-78
2022/03/10 09:23:46;;;;;;;22.27;10.53;;;;;;;39.14;43.92;100793.81;5011684;28;20824;-75
2022/03/10 09:26:12;;;;;;;17.33;10.33;;;;;;;39.01;44.28;100796.66;5011606;28;20423;-75
2022/03/10 09:28:38;;;;;;;24.80;10.63;;;;;;;39.19;44.06;100795.63;5011656;28;20502;-78
2022/03/10 09:31:05;;;;;;;24.03;11.00;;;;;;;38.95;43.98;100788.66;5011521;28;20433;-78
2022/03/10 09:33:31;;;;;;;23.13;10.60;;;;;;;39.08;44.05;100805.94;5013067;28;20409;-78
2022/03/10 09:35:57;;;;;;;23.13;12.77;;;;;;;39.26;43.74;100798.66;5012812;28;20411;-76
2022/03/10 09:38:23;;;;;;;27.03;10.97;;;;;;;39.30;43.95;100793.41;5012681;28;20393;-76
2022/03/10 09:40:53;;;;;;;25.93;10.30;;;;;;;39.19;44.41;100790.19;5011001;28;20412;-75
2022/03/10 09:43:27;;;;;;;23.03;10.40;;;;;;;39.22;44.09;100793.03;5008227;28;21049;-75
2022/03/10 10:10:49;;;;;;;23.07;13.00;;;;;;;37.01;50.57;100778.91;5138505;27;20516;-66
2022/03/10 10:13:31;;;;;;;35.97;12.13;;;;;;;38.05;47.57;100769.03;5111985;28;20415;-67
2022/03/10 10:15:59;;;;;;;16.17;9.90;;;;;;;38.32;46.51;100776.25;5111746;28;20530;-67
2022/03/10 10:18:27;;;;;;;20.00;9.50;;;;;;;38.82;45.06;100775.22;5125493;27;20411;-67
2022/03/10 10:20:54;;;;;;;17.70;9.27;;;;;;;38.88;45.00;100771.25;5104946;28;20411;-68
2022/03/10 10:23:23;;;;;;;23.50;12.13;;;;;;;39.00;44.90;100759.81;5111636;28;20415;-67
2022/03/10 10:25:56;;;;;;;17.37;10.57;;;;;;;39.17;44.68;100762.59;5111773;28;20490;-66
2022/03/10 10:28:28;;;;;;;25.03;11.07;;;;;;;39.27;44.80;100754.13;5129847;28;20427;-65
2022/03/10 10:31:00;;;;;;;15.57;9.33;;;;;;;39.23;44.86;100758.59;5111604;28;20415;-65
2022/03/10 10:33:28;;;;;;;14.57;8.73;;;;;;;39.32;44.94;100755.88;5111479;28;20414;-66
2022/03/10 10:36:13;;;;;;;23.57;9.33;;;;;;;38.58;45.73;100765.53;5129790;28;20515;-65
2022/03/10 10:38:40;;;;;;;11.00;8.60;;;;;;;39.08;45.61;100756.31;5111704;28;20525;-66
2022/03/10 10:41:27;;;;;;;14.03;10.40;;;;;;;39.11;45.16;100753.75;5094734;28;20415;-67
2022/03/10 10:43:57;;;;;;;16.07;9.33;;;;;;;39.14;45.47;100742.25;5111351;28;20455;-67
2022/03/10 10:46:29;;;;;;;14.57;10.50;;;;;;;39.29;44.89;100740.22;5111298;28;20431;-67
2022/03/10 10:48:59;;;;;;;23.30;9.57;;;;;;;39.45;44.45;100746.78;5094129;28;20462;-65
2022/03/10 10:51:27;;;;;;;17.20;8.67;;;;;;;39.46;44.58;100742.94;5077918;28;20403;-64
2022/03/10 10:53:54;;;;;;;15.93;9.40;;;;;;;39.47;44.48;100749.97;5111088;28;20419;-67
2022/03/10 10:56:20;;;;;;;17.53;8.90;;;;;;;39.48;44.68;100755.09;5129443;28;20420;-68
2022/03/10 10:58:47;;;;;;;22.07;11.57;;;;;;;39.49;44.30;100739.59;5129427;28;20383;-68
2022/03/10 11:01:34;;;;;;;22.43;10.23;;;;;;;39.62;44.10;100746.00;5110908;28;20446;-68
2022/03/10 11:04:01;;;;;;;29.20;8.90;;;;;;;39.59;43.96;100747.41;5110923;28;20420;-67
2022/03/10 11:06:28;;;;;;;20.70;8.80;;;;;;;39.77;43.81;100756.38;5110794;28;20438;-66
2022/03/10 11:08:54;;;;;;;22.73;9.60;;;;;;;39.89;43.68;100756.50;5128950;28;20849;-67
2022/03/10 11:11:22;;;;;;;13.83;8.80;;;;;;;39.86;43.34;100749.03;5131727;27;20533;-66
2022/03/10 11:13:49;;;;;;;17.40;9.90;;;;;;;39.85;43.38;100746.63;5120747;27;20407;-65
2022/03/10 11:16:16;;;;;;;17.83;8.93;;;;;;;39.42;44.02;100739.28;5103373;27;20428;-67
2022/03/10 11:18:49;;;;;;;23.10;11.00;;;;;;;39.57;44.18;100746.16;5118823;27;20971;-66
2022/03/10 11:21:54;;;;;;;19.90;10.93;;;;;;;39.69;43.91;100751.75;5108579;28;20461;-65
2022/03/10 11:24:25;;;;;;;15.57;9.40;;;;;;;39.72;43.59;100754.63;5070551;28;20412;-67
2022/03/10 11:27:13;;;;;;;18.87;12.43;;;;;;;39.47;44.04;100747.25;5096919;28;20439;-70
2022/03/10 11:29:44;;;;;;;20.47;9.80;;;;;;;39.47;44.35;100752.69;5123707;27;20514;-67
2022/03/10 11:32:11;;;;;;;14.87;9.00;;;;;;;39.68;44.03;100744.72;5086747;27;20430;-68
2022/03/10 11:34:46;;;;;;;14.97;9.50;;;;;;;39.73;43.98;100739.13;5124415;27;20427;-69
2022/03/10 11:37:33;;;;;;;20.97;9.77;;;;;;;39.93;43.16;100751.25;5090712;27;20418;-67
2022/03/10 11:39:59;;;;;;;22.27;10.93;;;;;;;39.84;43.50;100734.97;5105613;27;20408;-67
2022/03/10 11:42:28;;;;;;;25.87;11.30;;;;;;;40.03;43.11;100748.19;5105707;27;20421;-67
2022/03/10 11:45:17;;;;;;;17.80;11.33;;;;;;;39.96;43.31;100743.25;5107220;27;20932;-69